sensor_id;sensor_type;location;lat;lon;timestamp;P1;P2;P0
55518;PMS5003;41724;51.176;-0.708;2023-04-06T00:00:10;8;8;
55518;PMS5003;41724;51.176;-0.708;2023-04-06T00:02:38;6;6;
55518;PMS5003;41724;51.176;-0.708;2023-04-06T00:05:05;7;7;
55518;PMS5003;41724;51.176;-0.708;2023-04-06T00:07:33;9;8;
55518;PMS5003;41724;51.176;-0.708;2023-04-06T00:10:00;8;7;
55518;PMS5003;41724;51.176;-0.708;2023-04-06T00:12:28;8;8;
55518;PMS5003;41724;51.176;-0.708;2023-04-06T00:14:55;8;8;
55518;PMS5003;41724;51.176;-0.708;2023-04-06T00:17:22;9;8;
55518;PMS5003;41724;51.176;-0.708;2023-04-06T00:19:49;6;6;
55518;PMS5003;41724;51.176;-0.708;2023-04-06T00:22:17;9;9;
55518;PMS5003;41724;51.176;-0.708;2023-04-06T00:24:44;7;7;
55518;PMS5003;41724;51.176;-0.708;2023-04-06T00:27:11;10;8;
55518;PMS5003;41724;51.176;-0.708;2023-04-06T00:29:39;8;8;
55518;PMS5003;41724;51.176;-0.708;2023-04-06T00:32:06;9;9;
55518;PMS5003;41724;51.176;-0.708;2023-04-06T00:34:33;9;9;
55518;PMS5003;41724;51.176;-0.708;2023-04-06T00:37:00;9;9;
55518;PMS5003;41724;51.176;-0.708;2023-04-06T00:39:28;9;9;
55518;PMS5003;41724;51.176;-0.708;2023-04-06T00:41:54;9;8;
55518;PMS5003;41724;51.176;-0.708;2023-04-06T00:44:22;10;10;
55518;PMS5003;41724;51.176;-0.708;2023-04-06T00:46:49;9;9;
55518;PMS5003;41724;51.176;-0.708;2023-04-06T00:49:16;9;9;
55518;PMS5003;41724;51.176;-0.708;2023-04-06T00:51:43;12;12;
55518;PMS5003;41724;51.176;-0.708;2023-04-06T00:54:10;11;10;
55518;PMS5003;41724;51.176;-0.708;2023-04-06T00:56:37;11;11;
55518;PMS5003;41724;51.176;-0.708;2023-04-06T00:59:04;11;11;
55518;PMS5003;41724;51.176;-0.708;2023-04-06T01:01:32;9;9;
55518;PMS5003;41724;51.176;-0.708;2023-04-06T01:03:59;11;10;
55518;PMS5003;41724;51.176;-0.708;2023-04-06T01:06:26;11;11;
55518;PMS5003;41724;51.176;-0.708;2023-04-06T01:08:53;8;8;
55518;PMS5003;41724;51.176;-0.708;2023-04-06T01:11:20;11;11;
55518;PMS5003;41724;51.176;-0.708;2023-04-06T01:13:47;8;8;
55518;PMS5003;41724;51.176;-0.708;2023-04-06T01:16:15;10;10;
55518;PMS5003;41724;51.176;-0.708;2023-04-06T01:18:42;10;10;
55518;PMS5003;41724;51.176;-0.708;2023-04-06T01:21:09;9;8;
55518;PMS5003;41724;51.176;-0.708;2023-04-06T01:23:36;10;9;
55518;PMS5003;41724;51.176;-0.708;2023-04-06T01:26:03;10;10;
55518;PMS5003;41724;51.176;-0.708;2023-04-06T01:28:30;10;9;
55518;PMS5003;41724;51.176;-0.708;2023-04-06T01:30:57;8;8;
55518;PMS5003;41724;51.176;-0.708;2023-04-06T01:33:25;8;8;
55518;PMS5003;41724;51.176;-0.708;2023-04-06T01:35:52;7;6;
55518;PMS5003;41724;51.176;-0.708;2023-04-06T01:38:19;7;7;
55518;PMS5003;41724;51.176;-0.708;2023-04-06T01:40:46;7;7;
55518;PMS5003;41724;51.176;-0.708;2023-04-06T01:43:14;7;7;
55518;PMS5003;41724;51.176;-0.708;2023-04-06T01:45:41;7;7;
55518;PMS5003;41724;51.176;-0.708;2023-04-06T01:48:08;6;6;
55518;PMS5003;41724;51.176;-0.708;2023-04-06T01:50:35;7;6;
55518;PMS5003;41724;51.176;-0.708;2023-04-06T01:53:02;7;7;
55518;PMS5003;41724;51.176;-0.708;2023-04-06T01:55:30;5;5;
55518;PMS5003;41724;51.176;-0.708;2023-04-06T01:57:57;6;6;
55518;PMS5003;41724;51.176;-0.708;2023-04-06T02:00:24;7;6;
55518;PMS5003;41724;51.176;-0.708;2023-04-06T02:02:51;7;7;
55518;PMS5003;41724;51.176;-0.708;2023-04-06T02:05:19;9;9;
55518;PMS5003;41724;51.176;-0.708;2023-04-06T02:07:46;7;7;
55518;PMS5003;41724;51.176;-0.708;2023-04-06T02:10:13;7;6;
55518;PMS5003;41724;51.176;-0.708;2023-04-06T02:12:41;8;7;
55518;PMS5003;41724;51.176;-0.708;2023-04-06T02:15:08;5;5;
55518;PMS5003;41724;51.176;-0.708;2023-04-06T02:17:36;4;4;
55518;PMS5003;41724;51.176;-0.708;2023-04-06T02:20:03;5;5;
55518;PMS5003;41724;51.176;-0.708;2023-04-06T02:22:31;4;4;
55518;PMS5003;41724;51.176;-0.708;2023-04-06T02:24:58;4;4;
55518;PMS5003;41724;51.176;-0.708;2023-04-06T02:27:25;5;5;
55518;PMS5003;41724;51.176;-0.708;2023-04-06T02:29:52;6;5;
55518;PMS5003;41724;51.176;-0.708;2023-04-06T02:32:19;4;4;
55518;PMS5003;41724;51.176;-0.708;2023-04-06T02:34:47;4;4;
55518;PMS5003;41724;51.176;-0.708;2023-04-06T02:37:14;4;4;
55518;PMS5003;41724;51.176;-0.708;2023-04-06T02:39:41;4;4;
55518;PMS5003;41724;51.176;-0.708;2023-04-06T02:42:08;4;4;
55518;PMS5003;41724;51.176;-0.708;2023-04-06T02:44:35;3;3;
55518;PMS5003;41724;51.176;-0.708;2023-04-06T02:47:02;4;4;
55518;PMS5003;41724;51.176;-0.708;2023-04-06T02:49:30;5;5;
55518;PMS5003;41724;51.176;-0.708;2023-04-06T02:51:57;6;6;
55518;PMS5003;41724;51.176;-0.708;2023-04-06T02:54:24;5;5;
55518;PMS5003;41724;51.176;-0.708;2023-04-06T02:56:51;4;4;
55518;PMS5003;41724;51.176;-0.708;2023-04-06T02:59:18;5;5;
55518;PMS5003;41724;51.176;-0.708;2023-04-06T03:01:45;5;5;
55518;PMS5003;41724;51.176;-0.708;2023-04-06T03:04:12;5;5;
55518;PMS5003;41724;51.176;-0.708;2023-04-06T03:06:40;5;5;
55518;PMS5003;41724;51.176;-0.708;2023-04-06T03:09:07;4;4;
55518;PMS5003;41724;51.176;-0.708;2023-04-06T03:11:34;5;5;
55518;PMS5003;41724;51.176;-0.708;2023-04-06T03:14:01;5;5;
55518;PMS5003;41724;51.176;-0.708;2023-04-06T03:16:28;5;5;
55518;PMS5003;41724;51.176;-0.708;2023-04-06T03:18:55;4;4;
55518;PMS5003;41724;51.176;-0.708;2023-04-06T03:21:23;4;4;
55518;PMS5003;41724;51.176;-0.708;2023-04-06T03:23:50;5;5;
55518;PMS5003;41724;51.176;-0.708;2023-04-06T03:26:17;5;5;
55518;PMS5003;41724;51.176;-0.708;2023-04-06T03:28:44;4;4;
55518;PMS5003;41724;51.176;-0.708;2023-04-06T03:31:11;5;5;
55518;PMS5003;41724;51.176;-0.708;2023-04-06T03:33:38;5;5;
55518;PMS5003;41724;51.176;-0.708;2023-04-06T03:36:06;6;6;
55518;PMS5003;41724;51.176;-0.708;2023-04-06T03:38:34;6;6;
55518;PMS5003;41724;51.176;-0.708;2023-04-06T03:41:01;6;6;
55518;PMS5003;41724;51.176;-0.708;2023-04-06T03:43:28;6;6;
55518;PMS5003;41724;51.176;-0.708;2023-04-06T03:45:56;7;7;
55518;PMS5003;41724;51.176;-0.708;2023-04-06T03:48:23;7;7;
55518;PMS5003;41724;51.176;-0.708;2023-04-06T03:50:50;7;7;
55518;PMS5003;41724;51.176;-0.708;2023-04-06T03:53:17;8;8;
55518;PMS5003;41724;51.176;-0.708;2023-04-06T03:55:44;7;7;
55518;PMS5003;41724;51.176;-0.708;2023-04-06T03:58:12;7;7;
55518;PMS5003;41724;51.176;-0.708;2023-04-06T04:00:40;9;9;
55518;PMS5003;41724;51.176;-0.708;2023-04-06T04:03:07;8;8;
55518;PMS5003;41724;51.176;-0.708;2023-04-06T04:05:34;9;9;
55518;PMS5003;41724;51.176;-0.708;2023-04-06T04:08:01;10;10;
55518;PMS5003;41724;51.176;-0.708;2023-04-06T04:10:28;9;9;
55518;PMS5003;41724;51.176;-0.708;2023-04-06T04:12:55;10;10;
55518;PMS5003;41724;51.176;-0.708;2023-04-06T04:15:23;10;10;
55518;PMS5003;41724;51.176;-0.708;2023-04-06T04:17:49;10;9;
55518;PMS5003;41724;51.176;-0.708;2023-04-06T04:20:17;10;10;
55518;PMS5003;41724;51.176;-0.708;2023-04-06T04:22:43;9;9;
55518;PMS5003;41724;51.176;-0.708;2023-04-06T04:25:11;7;7;
55518;PMS5003;41724;51.176;-0.708;2023-04-06T04:27:38;9;9;
55518;PMS5003;41724;51.176;-0.708;2023-04-06T04:30:06;8;8;
55518;PMS5003;41724;51.176;-0.708;2023-04-06T04:32:34;6;6;
55518;PMS5003;41724;51.176;-0.708;2023-04-06T04:35:01;9;9;
55518;PMS5003;41724;51.176;-0.708;2023-04-06T04:37:29;7;7;
55518;PMS5003;41724;51.176;-0.708;2023-04-06T04:39:56;8;8;
55518;PMS5003;41724;51.176;-0.708;2023-04-06T04:42:23;6;6;
55518;PMS5003;41724;51.176;-0.708;2023-04-06T04:44:51;6;5;
55518;PMS5003;41724;51.176;-0.708;2023-04-06T04:47:18;6;6;
55518;PMS5003;41724;51.176;-0.708;2023-04-06T04:49:45;8;7;
55518;PMS5003;41724;51.176;-0.708;2023-04-06T04:52:12;6;6;
55518;PMS5003;41724;51.176;-0.708;2023-04-06T04:54:39;6;6;
55518;PMS5003;41724;51.176;-0.708;2023-04-06T04:57:06;6;6;
55518;PMS5003;41724;51.176;-0.708;2023-04-06T04:59:34;7;7;
55518;PMS5003;41724;51.176;-0.708;2023-04-06T05:02:01;7;7;
55518;PMS5003;41724;51.176;-0.708;2023-04-06T05:04:28;8;8;
55518;PMS5003;41724;51.176;-0.708;2023-04-06T05:07:01;8;8;
55518;PMS5003;41724;51.176;-0.708;2023-04-06T05:09:30;8;7;
55518;PMS5003;41724;51.176;-0.708;2023-04-06T05:11:57;9;8;
55518;PMS5003;41724;51.176;-0.708;2023-04-06T05:14:25;6;6;
55518;PMS5003;41724;51.176;-0.708;2023-04-06T05:16:53;7;7;
55518;PMS5003;41724;51.176;-0.708;2023-04-06T05:19:21;6;6;
55518;PMS5003;41724;51.176;-0.708;2023-04-06T05:21:48;8;7;
55518;PMS5003;41724;51.176;-0.708;2023-04-06T05:24:15;7;7;
55518;PMS5003;41724;51.176;-0.708;2023-04-06T05:26:42;6;6;
55518;PMS5003;41724;51.176;-0.708;2023-04-06T05:29:10;5;5;
55518;PMS5003;41724;51.176;-0.708;2023-04-06T05:31:37;4;4;
55518;PMS5003;41724;51.176;-0.708;2023-04-06T05:34:04;7;7;
55518;PMS5003;41724;51.176;-0.708;2023-04-06T05:36:31;7;6;
55518;PMS5003;41724;51.176;-0.708;2023-04-06T05:38:58;3;3;
55518;PMS5003;41724;51.176;-0.708;2023-04-06T05:41:26;5;5;
55518;PMS5003;41724;51.176;-0.708;2023-04-06T05:43:53;5;5;
55518;PMS5003;41724;51.176;-0.708;2023-04-06T05:46:20;6;6;
55518;PMS5003;41724;51.176;-0.708;2023-04-06T05:48:47;5;5;
55518;PMS5003;41724;51.176;-0.708;2023-04-06T05:51:14;8;8;
55518;PMS5003;41724;51.176;-0.708;2023-04-06T05:53:41;6;6;
55518;PMS5003;41724;51.176;-0.708;2023-04-06T05:56:08;5;5;
55518;PMS5003;41724;51.176;-0.708;2023-04-06T05:58:35;5;5;
55518;PMS5003;41724;51.176;-0.708;2023-04-06T06:01:02;4;4;
55518;PMS5003;41724;51.176;-0.708;2023-04-06T06:03:30;4;4;
55518;PMS5003;41724;51.176;-0.708;2023-04-06T06:06:00;3;3;
55518;PMS5003;41724;51.176;-0.708;2023-04-06T06:08:28;4;4;
55518;PMS5003;41724;51.176;-0.708;2023-04-06T06:10:55;3;3;
55518;PMS5003;41724;51.176;-0.708;2023-04-06T06:13:23;3;3;
55518;PMS5003;41724;51.176;-0.708;2023-04-06T06:15:50;5;5;
55518;PMS5003;41724;51.176;-0.708;2023-04-06T06:18:17;4;4;
55518;PMS5003;41724;51.176;-0.708;2023-04-06T06:20:44;5;5;
55518;PMS5003;41724;51.176;-0.708;2023-04-06T06:23:11;5;5;
55518;PMS5003;41724;51.176;-0.708;2023-04-06T06:25:39;4;4;
55518;PMS5003;41724;51.176;-0.708;2023-04-06T06:28:06;5;4;
55518;PMS5003;41724;51.176;-0.708;2023-04-06T06:30:33;4;4;
55518;PMS5003;41724;51.176;-0.708;2023-04-06T06:33:00;4;4;
55518;PMS5003;41724;51.176;-0.708;2023-04-06T06:35:27;7;7;
55518;PMS5003;41724;51.176;-0.708;2023-04-06T06:37:54;3;3;
55518;PMS5003;41724;51.176;-0.708;2023-04-06T06:40:21;6;6;
55518;PMS5003;41724;51.176;-0.708;2023-04-06T06:42:48;5;5;
55518;PMS5003;41724;51.176;-0.708;2023-04-06T06:45:15;3;3;
55518;PMS5003;41724;51.176;-0.708;2023-04-06T06:47:42;7;6;
55518;PMS5003;41724;51.176;-0.708;2023-04-06T06:50:10;4;3;
55518;PMS5003;41724;51.176;-0.708;2023-04-06T06:52:36;3;3;
55518;PMS5003;41724;51.176;-0.708;2023-04-06T06:55:04;3;3;
55518;PMS5003;41724;51.176;-0.708;2023-04-06T06:57:31;7;6;
55518;PMS5003;41724;51.176;-0.708;2023-04-06T06:59:59;5;5;
55518;PMS5003;41724;51.176;-0.708;2023-04-06T07:02:26;3;2;
55518;PMS5003;41724;51.176;-0.708;2023-04-06T07:04:53;1;1;
55518;PMS5003;41724;51.176;-0.708;2023-04-06T07:07:20;2;2;
55518;PMS5003;41724;51.176;-0.708;2023-04-06T07:09:47;2;2;
55518;PMS5003;41724;51.176;-0.708;2023-04-06T07:12:14;1;1;
55518;PMS5003;41724;51.176;-0.708;2023-04-06T07:14:41;1;1;
55518;PMS5003;41724;51.176;-0.708;2023-04-06T07:17:08;2;2;
55518;PMS5003;41724;51.176;-0.708;2023-04-06T07:19:35;3;2;
55518;PMS5003;41724;51.176;-0.708;2023-04-06T07:22:02;4;2;
55518;PMS5003;41724;51.176;-0.708;2023-04-06T07:24:29;3;2;
55518;PMS5003;41724;51.176;-0.708;2023-04-06T07:26:57;1;1;
55518;PMS5003;41724;51.176;-0.708;2023-04-06T07:29:25;2;0;
55518;PMS5003;41724;51.176;-0.708;2023-04-06T07:31:53;2;1;
55518;PMS5003;41724;51.176;-0.708;2023-04-06T07:34:20;1;1;
55518;PMS5003;41724;51.176;-0.708;2023-04-06T07:36:47;2;1;
55518;PMS5003;41724;51.176;-0.708;2023-04-06T07:39:14;2;1;
55518;PMS5003;41724;51.176;-0.708;2023-04-06T07:41:41;3;3;
55518;PMS5003;41724;51.176;-0.708;2023-04-06T07:44:08;4;3;
55518;PMS5003;41724;51.176;-0.708;2023-04-06T07:46:36;3;2;
55518;PMS5003;41724;51.176;-0.708;2023-04-06T07:49:03;1;1;
55518;PMS5003;41724;51.176;-0.708;2023-04-06T07:51:30;4;2;
55518;PMS5003;41724;51.176;-0.708;2023-04-06T07:53:57;1;1;
55518;PMS5003;41724;51.176;-0.708;2023-04-06T07:56:24;4;4;
55518;PMS5003;41724;51.176;-0.708;2023-04-06T07:58:51;4;3;
55518;PMS5003;41724;51.176;-0.708;2023-04-06T08:01:18;4;3;
55518;PMS5003;41724;51.176;-0.708;2023-04-06T08:03:45;2;2;
55518;PMS5003;41724;51.176;-0.708;2023-04-06T08:06:12;2;2;
55518;PMS5003;41724;51.176;-0.708;2023-04-06T08:08:40;4;3;
55518;PMS5003;41724;51.176;-0.708;2023-04-06T08:11:08;5;4;
55518;PMS5003;41724;51.176;-0.708;2023-04-06T08:13:35;4;3;
55518;PMS5003;41724;51.176;-0.708;2023-04-06T08:16:03;5;5;
55518;PMS5003;41724;51.176;-0.708;2023-04-06T08:18:30;6;4;
55518;PMS5003;41724;51.176;-0.708;2023-04-06T08:20:57;7;6;
55518;PMS5003;41724;51.176;-0.708;2023-04-06T08:23:24;4;4;
55518;PMS5003;41724;51.176;-0.708;2023-04-06T08:25:52;6;5;
55518;PMS5003;41724;51.176;-0.708;2023-04-06T08:28:19;3;3;
55518;PMS5003;41724;51.176;-0.708;2023-04-06T08:30:46;6;5;
55518;PMS5003;41724;51.176;-0.708;2023-04-06T08:33:12;6;6;
55518;PMS5003;41724;51.176;-0.708;2023-04-06T08:35:39;5;4;
55518;PMS5003;41724;51.176;-0.708;2023-04-06T08:38:06;6;6;
55518;PMS5003;41724;51.176;-0.708;2023-04-06T08:40:35;7;5;
55518;PMS5003;41724;51.176;-0.708;2023-04-06T08:43:03;7;6;
55518;PMS5003;41724;51.176;-0.708;2023-04-06T08:45:34;8;6;
55518;PMS5003;41724;51.176;-0.708;2023-04-06T08:48:02;8;8;
55518;PMS5003;41724;51.176;-0.708;2023-04-06T08:50:30;9;9;
55518;PMS5003;41724;51.176;-0.708;2023-04-06T08:53:00;8;8;
55518;PMS5003;41724;51.176;-0.708;2023-04-06T08:55:27;11;7;
55518;PMS5003;41724;51.176;-0.708;2023-04-06T08:57:54;9;8;
55518;PMS5003;41724;51.176;-0.708;2023-04-06T09:00:22;7;5;
55518;PMS5003;41724;51.176;-0.708;2023-04-06T09:02:51;7;7;
55518;PMS5003;41724;51.176;-0.708;2023-04-06T09:05:21;6;6;
55518;PMS5003;41724;51.176;-0.708;2023-04-06T09:07:51;7;7;
55518;PMS5003;41724;51.176;-0.708;2023-04-06T09:10:19;7;7;
55518;PMS5003;41724;51.176;-0.708;2023-04-06T09:12:46;7;7;
55518;PMS5003;41724;51.176;-0.708;2023-04-06T09:15:20;9;8;
55518;PMS5003;41724;51.176;-0.708;2023-04-06T09:17:49;7;7;
55518;PMS5003;41724;51.176;-0.708;2023-04-06T09:20:21;6;6;
55518;PMS5003;41724;51.176;-0.708;2023-04-06T09:22:49;7;7;
55518;PMS5003;41724;51.176;-0.708;2023-04-06T09:25:18;10;6;
55518;PMS5003;41724;51.176;-0.708;2023-04-06T09:27:47;8;7;
55518;PMS5003;41724;51.176;-0.708;2023-04-06T09:30:24;8;6;
55518;PMS5003;41724;51.176;-0.708;2023-04-06T09:32:51;8;7;
55518;PMS5003;41724;51.176;-0.708;2023-04-06T09:35:20;8;7;
55518;PMS5003;41724;51.176;-0.708;2023-04-06T09:37:48;6;5;
55518;PMS5003;41724;51.176;-0.708;2023-04-06T09:40:17;10;9;
55518;PMS5003;41724;51.176;-0.708;2023-04-06T09:42:44;9;7;
55518;PMS5003;41724;51.176;-0.708;2023-04-06T09:45:13;8;8;
55518;PMS5003;41724;51.176;-0.708;2023-04-06T09:47:42;5;5;
55518;PMS5003;41724;51.176;-0.708;2023-04-06T09:50:12;7;5;
55518;PMS5003;41724;51.176;-0.708;2023-04-06T09:52:41;6;6;
55518;PMS5003;41724;51.176;-0.708;2023-04-06T09:55:13;5;5;
55518;PMS5003;41724;51.176;-0.708;2023-04-06T09:57:48;8;6;
55518;PMS5003;41724;51.176;-0.708;2023-04-06T10:00:22;6;6;
55518;PMS5003;41724;51.176;-0.708;2023-04-06T10:02:50;6;6;
55518;PMS5003;41724;51.176;-0.708;2023-04-06T10:05:27;4;4;
55518;PMS5003;41724;51.176;-0.708;2023-04-06T10:08:01;5;5;
55518;PMS5003;41724;51.176;-0.708;2023-04-06T10:10:31;6;4;
55518;PMS5003;41724;51.176;-0.708;2023-04-06T10:12:58;6;5;
55518;PMS5003;41724;51.176;-0.708;2023-04-06T10:15:25;4;4;
55518;PMS5003;41724;51.176;-0.708;2023-04-06T10:17:54;6;4;
55518;PMS5003;41724;51.176;-0.708;2023-04-06T10:20:23;7;5;
55518;PMS5003;41724;51.176;-0.708;2023-04-06T10:22:55;6;6;
55518;PMS5003;41724;51.176;-0.708;2023-04-06T10:25:28;6;5;
55518;PMS5003;41724;51.176;-0.708;2023-04-06T10:28:00;5;4;
55518;PMS5003;41724;51.176;-0.708;2023-04-06T10:30:28;4;4;
55518;PMS5003;41724;51.176;-0.708;2023-04-06T10:32:57;6;5;
55518;PMS5003;41724;51.176;-0.708;2023-04-06T10:35:24;3;3;
55518;PMS5003;41724;51.176;-0.708;2023-04-06T10:38:03;4;3;
55518;PMS5003;41724;51.176;-0.708;2023-04-06T10:40:31;6;5;
55518;PMS5003;41724;51.176;-0.708;2023-04-06T10:43:07;5;4;
55518;PMS5003;41724;51.176;-0.708;2023-04-06T10:45:36;4;4;
55518;PMS5003;41724;51.176;-0.708;2023-04-06T10:48:13;5;5;
55518;PMS5003;41724;51.176;-0.708;2023-04-06T10:50:41;5;4;
55518;PMS5003;41724;51.176;-0.708;2023-04-06T10:53:09;4;4;
55518;PMS5003;41724;51.176;-0.708;2023-04-06T10:55:48;3;3;
55518;PMS5003;41724;51.176;-0.708;2023-04-06T10:58:17;5;4;
55518;PMS5003;41724;51.176;-0.708;2023-04-06T11:00:44;2;2;
55518;PMS5003;41724;51.176;-0.708;2023-04-06T11:03:12;3;3;
55518;PMS5003;41724;51.176;-0.708;2023-04-06T11:05:44;5;4;
55518;PMS5003;41724;51.176;-0.708;2023-04-06T11:08:23;4;3;
55518;PMS5003;41724;51.176;-0.708;2023-04-06T11:10:51;14;12;
55518;PMS5003;41724;51.176;-0.708;2023-04-06T11:13:18;8;6;
55518;PMS5003;41724;51.176;-0.708;2023-04-06T11:15:45;4;4;
55518;PMS5003;41724;51.176;-0.708;2023-04-06T11:18:12;3;3;
55518;PMS5003;41724;51.176;-0.708;2023-04-06T11:20:47;3;3;
55518;PMS5003;41724;51.176;-0.708;2023-04-06T11:23:21;3;3;
55518;PMS5003;41724;51.176;-0.708;2023-04-06T11:25:50;2;2;
55518;PMS5003;41724;51.176;-0.708;2023-04-06T11:28:18;2;2;
55518;PMS5003;41724;51.176;-0.708;2023-04-06T11:30:46;3;2;
55518;PMS5003;41724;51.176;-0.708;2023-04-06T11:33:20;2;2;
55518;PMS5003;41724;51.176;-0.708;2023-04-06T11:35:47;3;3;
55518;PMS5003;41724;51.176;-0.708;2023-04-06T11:38:14;2;2;
55518;PMS5003;41724;51.176;-0.708;2023-04-06T11:40:46;4;3;
55518;PMS5003;41724;51.176;-0.708;2023-04-06T11:43:14;3;3;
55518;PMS5003;41724;51.176;-0.708;2023-04-06T11:45:42;5;4;
55518;PMS5003;41724;51.176;-0.708;2023-04-06T11:48:17;4;4;
55518;PMS5003;41724;51.176;-0.708;2023-04-06T11:50:46;5;4;
55518;PMS5003;41724;51.176;-0.708;2023-04-06T11:53:13;6;5;
55518;PMS5003;41724;51.176;-0.708;2023-04-06T11:55:40;6;5;
55518;PMS5003;41724;51.176;-0.708;2023-04-06T11:58:07;4;3;
55518;PMS5003;41724;51.176;-0.708;2023-04-06T12:00:34;3;3;
55518;PMS5003;41724;51.176;-0.708;2023-04-06T12:03:02;4;4;
55518;PMS5003;41724;51.176;-0.708;2023-04-06T12:05:29;3;3;
55518;PMS5003;41724;51.176;-0.708;2023-04-06T12:07:56;4;4;
55518;PMS5003;41724;51.176;-0.708;2023-04-06T12:10:23;4;4;
55518;PMS5003;41724;51.176;-0.708;2023-04-06T12:12:50;4;4;
55518;PMS5003;41724;51.176;-0.708;2023-04-06T12:15:17;3;3;
55518;PMS5003;41724;51.176;-0.708;2023-04-06T12:17:44;3;3;
55518;PMS5003;41724;51.176;-0.708;2023-04-06T12:20:11;4;4;
55518;PMS5003;41724;51.176;-0.708;2023-04-06T12:22:38;4;4;
55518;PMS5003;41724;51.176;-0.708;2023-04-06T12:25:06;3;2;
55518;PMS5003;41724;51.176;-0.708;2023-04-06T12:27:34;2;2;
55518;PMS5003;41724;51.176;-0.708;2023-04-06T12:30:01;2;2;
55518;PMS5003;41724;51.176;-0.708;2023-04-06T12:32:28;2;2;
55518;PMS5003;41724;51.176;-0.708;2023-04-06T12:34:55;2;2;
55518;PMS5003;41724;51.176;-0.708;2023-04-06T12:37:23;3;3;
55518;PMS5003;41724;51.176;-0.708;2023-04-06T12:39:50;7;6;
55518;PMS5003;41724;51.176;-0.708;2023-04-06T12:42:18;7;7;
55518;PMS5003;41724;51.176;-0.708;2023-04-06T12:44:45;3;3;
55518;PMS5003;41724;51.176;-0.708;2023-04-06T12:47:12;6;5;
55518;PMS5003;41724;51.176;-0.708;2023-04-06T12:49:39;5;5;
55518;PMS5003;41724;51.176;-0.708;2023-04-06T12:52:06;2;1;
55518;PMS5003;41724;51.176;-0.708;2023-04-06T12:54:33;2;2;
55518;PMS5003;41724;51.176;-0.708;2023-04-06T12:59:32;1;1;
55518;PMS5003;41724;51.176;-0.708;2023-04-06T13:01:23;2;2;
55518;PMS5003;41724;51.176;-0.708;2023-04-06T13:03:50;3;3;
55518;PMS5003;41724;51.176;-0.708;2023-04-06T13:06:54;2;2;
55518;PMS5003;41724;51.176;-0.708;2023-04-06T13:09:22;2;1;
55518;PMS5003;41724;51.176;-0.708;2023-04-06T13:11:49;1;1;
55518;PMS5003;41724;51.176;-0.708;2023-04-06T13:14:16;1;0;
55518;PMS5003;41724;51.176;-0.708;2023-04-06T13:16:43;0;0;
55518;PMS5003;41724;51.176;-0.708;2023-04-06T13:19:22;1;1;
55518;PMS5003;41724;51.176;-0.708;2023-04-06T13:21:49;0;0;
55518;PMS5003;41724;51.176;-0.708;2023-04-06T13:24:17;2;2;
55518;PMS5003;41724;51.176;-0.708;2023-04-06T13:26:44;0;0;
55518;PMS5003;41724;51.176;-0.708;2023-04-06T13:29:11;0;0;
55518;PMS5003;41724;51.176;-0.708;2023-04-06T13:31:38;1;1;
55518;PMS5003;41724;51.176;-0.708;2023-04-06T13:34:06;4;3;
55518;PMS5003;41724;51.176;-0.708;2023-04-06T13:36:33;2;2;
55518;PMS5003;41724;51.176;-0.708;2023-04-06T13:39:00;6;3;
55518;PMS5003;41724;51.176;-0.708;2023-04-06T13:41:27;3;3;
55518;PMS5003;41724;51.176;-0.708;2023-04-06T13:43:54;2;2;
55518;PMS5003;41724;51.176;-0.708;2023-04-06T13:46:21;1;1;
55518;PMS5003;41724;51.176;-0.708;2023-04-06T13:48:48;3;3;
55518;PMS5003;41724;51.176;-0.708;2023-04-06T13:51:15;1;1;
55518;PMS5003;41724;51.176;-0.708;2023-04-06T13:53:42;3;3;
55518;PMS5003;41724;51.176;-0.708;2023-04-06T13:56:10;0;0;
55518;PMS5003;41724;51.176;-0.708;2023-04-06T13:58:38;2;2;
55518;PMS5003;41724;51.176;-0.708;2023-04-06T14:01:05;1;1;
55518;PMS5003;41724;51.176;-0.708;2023-04-06T14:03:34;0;0;
55518;PMS5003;41724;51.176;-0.708;2023-04-06T14:06:09;2;1;
55518;PMS5003;41724;51.176;-0.708;2023-04-06T14:08:37;1;1;
55518;PMS5003;41724;51.176;-0.708;2023-04-06T14:11:04;2;2;
55518;PMS5003;41724;51.176;-0.708;2023-04-06T14:13:31;2;2;
55518;PMS5003;41724;51.176;-0.708;2023-04-06T14:15:58;1;1;
55518;PMS5003;41724;51.176;-0.708;2023-04-06T14:18:25;4;2;
55518;PMS5003;41724;51.176;-0.708;2023-04-06T14:20:53;2;1;
55518;PMS5003;41724;51.176;-0.708;2023-04-06T14:23:21;1;1;
55518;PMS5003;41724;51.176;-0.708;2023-04-06T14:26:00;3;1;
55518;PMS5003;41724;51.176;-0.708;2023-04-06T14:28:28;1;1;
55518;PMS5003;41724;51.176;-0.708;2023-04-06T14:30:55;4;3;
55518;PMS5003;41724;51.176;-0.708;2023-04-06T14:33:22;4;4;
55518;PMS5003;41724;51.176;-0.708;2023-04-06T14:35:49;3;3;
55518;PMS5003;41724;51.176;-0.708;2023-04-06T14:38:16;3;3;
55518;PMS5003;41724;51.176;-0.708;2023-04-06T14:40:43;1;1;
55518;PMS5003;41724;51.176;-0.708;2023-04-06T14:43:10;5;5;
55518;PMS5003;41724;51.176;-0.708;2023-04-06T14:45:37;3;3;
55518;PMS5003;41724;51.176;-0.708;2023-04-06T14:48:04;6;6;
55518;PMS5003;41724;51.176;-0.708;2023-04-06T14:50:31;4;4;
55518;PMS5003;41724;51.176;-0.708;2023-04-06T14:52:58;6;6;
55518;PMS5003;41724;51.176;-0.708;2023-04-06T14:55:25;3;3;
55518;PMS5003;41724;51.176;-0.708;2023-04-06T14:57:52;1;1;
55518;PMS5003;41724;51.176;-0.708;2023-04-06T15:00:19;3;3;
55518;PMS5003;41724;51.176;-0.708;2023-04-06T15:02:46;3;3;
55518;PMS5003;41724;51.176;-0.708;2023-04-06T15:05:13;11;11;
55518;PMS5003;41724;51.176;-0.708;2023-04-06T15:07:42;3;2;
55518;PMS5003;41724;51.176;-0.708;2023-04-06T15:10:09;1;0;
55518;PMS5003;41724;51.176;-0.708;2023-04-06T15:12:36;3;3;
55518;PMS5003;41724;51.176;-0.708;2023-04-06T15:15:04;1;1;
55518;PMS5003;41724;51.176;-0.708;2023-04-06T15:17:32;0;0;
55518;PMS5003;41724;51.176;-0.708;2023-04-06T15:19:59;0;0;
55518;PMS5003;41724;51.176;-0.708;2023-04-06T15:22:25;1;1;
55518;PMS5003;41724;51.176;-0.708;2023-04-06T15:24:52;1;0;
55518;PMS5003;41724;51.176;-0.708;2023-04-06T15:27:19;1;1;
55518;PMS5003;41724;51.176;-0.708;2023-04-06T15:29:47;0;0;
55518;PMS5003;41724;51.176;-0.708;2023-04-06T15:32:14;0;0;
55518;PMS5003;41724;51.176;-0.708;2023-04-06T15:34:41;1;1;
55518;PMS5003;41724;51.176;-0.708;2023-04-06T15:37:08;0;0;
55518;PMS5003;41724;51.176;-0.708;2023-04-06T15:39:36;0;0;
55518;PMS5003;41724;51.176;-0.708;2023-04-06T15:42:03;0;0;
55518;PMS5003;41724;51.176;-0.708;2023-04-06T15:44:30;0;0;
55518;PMS5003;41724;51.176;-0.708;2023-04-06T15:46:57;2;1;
55518;PMS5003;41724;51.176;-0.708;2023-04-06T15:49:24;2;2;
55518;PMS5003;41724;51.176;-0.708;2023-04-06T15:51:51;1;1;
55518;PMS5003;41724;51.176;-0.708;2023-04-06T15:54:18;1;1;
55518;PMS5003;41724;51.176;-0.708;2023-04-06T15:56:45;1;1;
55518;PMS5003;41724;51.176;-0.708;2023-04-06T15:59:14;0;0;
55518;PMS5003;41724;51.176;-0.708;2023-04-06T16:01:41;1;1;
55518;PMS5003;41724;51.176;-0.708;2023-04-06T16:04:08;2;2;
55518;PMS5003;41724;51.176;-0.708;2023-04-06T16:06:36;4;4;
55518;PMS5003;41724;51.176;-0.708;2023-04-06T16:09:03;3;3;
55518;PMS5003;41724;51.176;-0.708;2023-04-06T16:11:30;1;1;
55518;PMS5003;41724;51.176;-0.708;2023-04-06T16:13:57;2;2;
55518;PMS5003;41724;51.176;-0.708;2023-04-06T16:16:23;1;1;
55518;PMS5003;41724;51.176;-0.708;2023-04-06T16:18:50;2;2;
55518;PMS5003;41724;51.176;-0.708;2023-04-06T16:21:17;0;0;
55518;PMS5003;41724;51.176;-0.708;2023-04-06T16:23:45;0;0;
55518;PMS5003;41724;51.176;-0.708;2023-04-06T16:26:13;3;3;
55518;PMS5003;41724;51.176;-0.708;2023-04-06T16:28:42;3;3;
55518;PMS5003;41724;51.176;-0.708;2023-04-06T16:31:15;1;1;
55518;PMS5003;41724;51.176;-0.708;2023-04-06T16:33:43;1;1;
55518;PMS5003;41724;51.176;-0.708;2023-04-06T16:36:10;2;2;
55518;PMS5003;41724;51.176;-0.708;2023-04-06T16:38:37;0;0;